Time;durP1;ratioP1;P1;durP2;ratioP2;P2;SDS_P1;SDS_P2;PMS_P1;PMS_P2;Temp;Humidity;BMP_temperature;BMP_pressure;BME280_temperature;BME280_humidity;BME280_pressure;Samples;Min_cycle;Max_cycle;Signal;HPM_P1;HPM_P2
2021/11/27 00:00:44;;;;;;;25.13;19.60;;;4.30;99.90;;;;;;4994231;28;20053;-50
2021/11/27 00:03:10;;;;;;;28.00;20.50;;;4.30;99.90;;;;;;4994237;28;20105;-49
2021/11/27 00:05:38;;;;;;;29.65;21.52;;;4.30;99.90;;;;;;4994187;28;20043;-49
2021/11/27 00:08:06;;;;;;;27.48;20.73;;;4.30;99.90;;;;;;4994249;28;20050;-50
2021/11/27 00:10:33;;;;;;;32.20;21.80;;;4.30;99.90;;;;;;4994172;28;20047;-48
2021/11/27 00:13:00;;;;;;;28.73;22.05;;;4.30;99.90;;;;;;4994106;28;20109;-48
2021/11/27 00:15:27;;;;;;;31.52;21.35;;;4.30;99.90;;;;;;4993751;28;20050;-48
2021/11/27 00:17:54;;;;;;;28.33;21.45;;;4.70;99.90;;;;;;4993771;28;20074;-47
2021/11/27 00:20:22;;;;;;;31.52;22.52;;;4.40;99.90;;;;;;4994111;28;20050;-48
2021/11/27 00:22:49;;;;;;;31.10;22.70;;;4.40;99.90;;;;;;4993849;28;20050;-50
2021/11/27 00:25:15;;;;;;;30.92;22.63;;;4.30;99.90;;;;;;4993813;28;20038;-46
2021/11/27 00:27:41;;;;;;;33.58;22.20;;;4.40;99.90;;;;;;4993738;28;20038;-50
2021/11/27 00:30:11;;;;;;;33.88;22.42;;;4.40;99.90;;;;;;4993505;28;20453;-49
2021/11/27 00:32:37;;;;;;;29.98;22.10;;;4.40;99.90;;;;;;4993777;28;20160;-49
2021/11/27 00:35:04;;;;;;;30.13;21.90;;;4.40;99.90;;;;;;4993746;28;20050;-48
2021/11/27 00:37:29;;;;;;;33.72;23.52;;;4.40;99.90;;;;;;4993642;28;20070;-48
2021/11/27 00:39:55;;;;;;;30.38;22.33;;;4.40;99.90;;;;;;4993442;28;20460;-47
2021/11/27 00:42:21;;;;;;;31.42;23.38;;;4.40;99.90;;;;;;4992930;28;20042;-50
2021/11/27 00:44:47;;;;;;;32.25;23.63;;;4.40;99.90;;;;;;4993112;28;20436;-49
2021/11/27 00:47:12;;;;;;;31.75;23.65;;;4.50;99.90;;;;;;4992247;28;20050;-52
2021/11/27 00:49:38;;;;;;;30.55;22.25;;;4.40;99.90;;;;;;4993278;28;20135;-51
2021/11/27 00:52:04;;;;;;;31.40;23.35;;;4.50;99.90;;;;;;4993076;28;20115;-47
2021/11/27 00:54:30;;;;;;;33.08;22.20;;;4.50;99.90;;;;;;4993361;28;20397;-48
2021/11/27 00:56:55;;;;;;;33.00;23.83;;;4.50;99.90;;;;;;4993237;28;20053;-48
2021/11/27 00:59:21;;;;;;;38.55;25.10;;;4.60;99.90;;;;;;4993049;28;20488;-50
2021/11/27 01:01:47;;;;;;;33.88;23.60;;;4.50;99.90;;;;;;4993334;28;20034;-51
2021/11/27 01:04:13;;;;;;;35.90;25.20;;;4.50;99.90;;;;;;4992774;28;20103;-50
2021/11/27 01:06:39;;;;;;;33.03;24.35;;;4.60;99.90;;;;;;4992859;28;20046;-49
2021/11/27 01:09:11;;;;;;;38.38;25.02;;;4.60;99.90;;;;;;4993105;28;20034;-50
2021/11/27 01:11:41;;;;;;;36.40;25.20;;;4.50;99.90;;;;;;4993017;28;20070;-49
2021/11/27 01:14:11;;;;;;;34.30;24.83;;;4.60;99.90;;;;;;4993214;28;20074;-47
2021/11/27 01:16:39;;;;;;;31.85;23.33;;;4.50;99.90;;;;;;4993330;28;20126;-50
2021/11/27 01:19:07;;;;;;;38.20;25.30;;;4.50;99.90;;;;;;4993103;28;20084;-49
2021/11/27 01:21:37;;;;;;;32.05;23.95;;;4.50;99.90;;;;;;4993047;28;20373;-49
2021/11/27 01:24:07;;;;;;;32.53;22.67;;;4.50;99.90;;;;;;4992865;28;20232;-49
2021/11/27 01:26:34;;;;;;;32.30;23.58;;;4.50;99.90;;;;;;4992761;28;20042;-50
2021/11/27 01:29:01;;;;;;;35.95;23.75;;;4.60;99.90;;;;;;4991482;28;20050;-49
2021/11/27 01:31:26;;;;;;;34.97;23.52;;;4.60;99.90;;;;;;4992931;28;20093;-51
2021/11/27 01:33:53;;;;;;;36.42;25.55;;;4.70;99.90;;;;;;4992771;28;20385;-48
2021/11/27 01:36:19;;;;;;;35.28;24.02;;;4.60;99.90;;;;;;4992645;28;20034;-48
2021/11/27 01:38:45;;;;;;;33.05;22.35;;;4.60;99.90;;;;;;4992791;28;20389;-49
2021/11/27 01:41:11;;;;;;;37.28;25.42;;;4.70;99.90;;;;;;4992672;28;20100;-47
2021/11/27 01:43:37;;;;;;;37.22;24.30;;;4.60;99.90;;;;;;4992934;28;20046;-47
2021/11/27 01:46:05;;;;;;;33.30;24.15;;;4.70;99.90;;;;;;4992820;28;20070;-48
2021/11/27 01:48:31;;;;;;;33.92;24.20;;;4.70;99.90;;;;;;4992734;28;20117;-49
2021/11/27 01:51:03;;;;;;;34.88;23.55;;;4.70;99.90;;;;;;4992657;28;20121;-50
2021/11/27 01:53:31;;;;;;;30.52;22.38;;;4.70;99.90;;;;;;4992754;28;20042;-49
2021/11/27 01:56:00;;;;;;;33.58;22.88;;;4.80;99.90;;;;;;4992571;28;20497;-50
2021/11/27 01:58:27;;;;;;;30.85;21.85;;;4.80;99.90;;;;;;4992675;28;20046;-49
2021/11/27 02:01:00;;;;;;;29.20;20.50;;;4.80;99.90;;;;;;4992729;28;20038;-48
2021/11/27 02:03:25;;;;;;;27.70;20.17;;;4.80;99.90;;;;;;4992680;28;20042;-48
2021/11/27 02:05:52;;;;;;;26.15;19.70;;;4.80;99.90;;;;;;4992248;28;20044;-49
2021/11/27 02:08:17;;;;;;;28.33;19.52;;;4.80;99.90;;;;;;4992463;28;20039;-50
2021/11/27 02:10:44;;;;;;;26.70;18.50;;;4.80;99.90;;;;;;4992716;28;20030;-50
2021/11/27 02:13:11;;;;;;;27.02;18.70;;;4.80;99.90;;;;;;4992274;28;20495;-49
2021/11/27 02:15:37;;;;;;;23.90;17.48;;;4.80;99.90;;;;;;4991962;28;20480;-51
2021/11/27 02:18:04;;;;;;;24.33;17.98;;;4.80;99.90;;;;;;4994190;28;20408;-49
2021/11/27 02:20:37;;;;;;;26.75;18.30;;;4.80;99.90;;;;;;4996033;28;20038;-50
2021/11/27 02:23:03;;;;;;;28.08;19.13;;;4.80;99.90;;;;;;4994768;28;20473;-49
2021/11/27 02:25:31;;;;;;;24.85;18.00;;;4.80;99.90;;;;;;4995658;28;20555;-47
2021/11/27 02:27:57;;;;;;;23.38;17.23;;;4.80;99.90;;;;;;4996064;28;20168;-49
2021/11/27 02:30:23;;;;;;;29.20;18.75;;;4.80;99.90;;;;;;4995731;28;20078;-48
2021/11/27 02:33:10;;;;;;;26.70;18.63;;;4.80;99.90;;;;;;4995745;28;20046;-51
2021/11/27 02:35:36;;;;;;;25.75;18.05;;;4.80;99.90;;;;;;4992027;28;20105;-51
2021/11/27 02:38:02;;;;;;;26.92;18.30;;;4.80;99.90;;;;;;4995875;28;20076;-48
2021/11/27 02:40:29;;;;;;;24.10;18.23;;;4.80;99.90;;;;;;4995700;28;20057;-48
2021/11/27 02:42:54;;;;;;;28.92;18.60;;;4.80;99.90;;;;;;4994426;28;20481;-50
2021/11/27 02:45:20;;;;;;;24.70;16.98;;;4.80;99.90;;;;;;4995634;28;20078;-48
2021/11/27 02:47:46;;;;;;;24.35;18.02;;;4.80;99.90;;;;;;4995694;28;20031;-52
2021/11/27 02:50:13;;;;;;;24.92;18.17;;;4.80;99.90;;;;;;4995815;28;20043;-48
2021/11/27 02:52:40;;;;;;;23.20;17.33;;;4.80;99.90;;;;;;4995672;28;20113;-49
2021/11/27 02:55:07;;;;;;;24.77;18.40;;;4.80;99.90;;;;;;4995603;28;20042;-49
2021/11/27 02:57:33;;;;;;;27.63;18.83;;;4.80;99.90;;;;;;4995321;28;20497;-52
2021/11/27 03:00:01;;;;;;;24.10;17.85;;;4.80;99.90;;;;;;4995469;28;20120;-49
2021/11/27 03:02:27;;;;;;;27.20;17.55;;;4.80;99.90;;;;;;5010292;28;20038;-50
2021/11/27 03:04:53;;;;;;;26.45;17.95;;;4.80;99.90;;;;;;4995197;28;20048;-50
2021/11/27 03:07:19;;;;;;;28.73;17.55;;;4.70;99.90;;;;;;4995500;28;20082;-47
2021/11/27 03:09:46;;;;;;;26.23;16.50;;;4.80;99.90;;;;;;4995206;28;20035;-47
2021/11/27 03:12:12;;;;;;;25.15;15.85;;;4.70;99.90;;;;;;4995131;28;20069;-50
2021/11/27 03:14:38;;;;;;;23.95;16.80;;;4.80;99.90;;;;;;4994204;28;20038;-52
2021/11/27 03:17:05;;;;;;;21.55;15.20;;;4.70;99.90;;;;;;4994895;28;20038;-51
2021/11/27 03:19:33;;;;;;;24.10;15.93;;;4.70;99.90;;;;;;4995303;28;20046;-47
2021/11/27 03:22:00;;;;;;;24.25;16.02;;;4.80;99.90;;;;;;4995134;28;20038;-51
2021/11/27 03:24:26;;;;;;;25.33;14.85;;;4.70;99.90;;;;;;4994816;28;20484;-50
2021/11/27 03:26:54;;;;;;;22.67;14.32;;;4.70;99.90;;;;;;4994534;28;20133;-48
2021/11/27 03:29:20;;;;;;;23.27;15.73;;;4.60;99.90;;;;;;4994839;28;20473;-52
2021/11/27 03:31:45;;;;;;;23.17;15.80;;;4.70;99.90;;;;;;4993638;28;20085;-48
2021/11/27 03:34:11;;;;;;;21.63;15.52;;;4.70;99.90;;;;;;4995039;28;20121;-50
2021/11/27 03:36:37;;;;;;;25.48;16.85;;;4.70;99.90;;;;;;4994963;28;20121;-50
2021/11/27 03:39:05;;;;;;;23.20;16.15;;;4.70;99.90;;;;;;4994868;28;20066;-48
2021/11/27 03:41:31;;;;;;;28.15;16.17;;;4.70;99.90;;;;;;4994758;28;20038;-51
2021/11/27 03:43:56;;;;;;;29.67;17.55;;;4.70;99.90;;;;;;4994569;28;20776;-50
2021/11/27 03:46:22;;;;;;;29.83;17.33;;;4.70;99.90;;;;;;4992797;28;20475;-51
2021/11/27 03:48:48;;;;;;;26.63;17.08;;;4.80;99.90;;;;;;4994578;28;20113;-51
2021/11/27 03:51:20;;;;;;;26.10;17.05;;;4.80;99.90;;;;;;4994604;28;20543;-50
2021/11/27 03:53:47;;;;;;;26.30;17.65;;;4.80;99.90;;;;;;4994498;28;20046;-50
2021/11/27 03:56:16;;;;;;;22.40;16.30;;;4.80;99.90;;;;;;4994602;28;20076;-47
2021/11/27 03:58:42;;;;;;;30.10;17.23;;;4.80;99.90;;;;;;4994285;28;20121;-48
2021/11/27 04:01:09;;;;;;;24.67;16.90;;;4.80;99.90;;;;;;4994495;28;20117;-51
2021/11/27 04:03:38;;;;;;;26.67;17.63;;;4.80;99.90;;;;;;4994019;28;20511;-51
2021/11/27 04:06:05;;;;;;;27.15;16.85;;;4.80;99.90;;;;;;4994064;28;20125;-51
2021/11/27 04:08:30;;;;;;;25.52;17.65;;;4.80;99.90;;;;;;4993959;28;20043;-50
2021/11/27 04:10:56;;;;;;;25.58;17.88;;;4.90;99.90;;;;;;4994112;28;20065;-50
2021/11/27 04:13:23;;;;;;;29.27;17.42;;;4.90;99.90;;;;;;4994321;28;20540;-52
2021/11/27 04:15:49;;;;;;;26.88;17.58;;;4.90;99.90;;;;;;4994390;28;20048;-49
2021/11/27 04:18:15;;;;;;;26.10;17.13;;;4.90;99.90;;;;;;4994259;28;20048;-49
2021/11/27 04:20:41;;;;;;;26.63;17.27;;;4.90;99.90;;;;;;4993943;28;20042;-49
2021/11/27 04:23:07;;;;;;;25.02;16.17;;;4.90;99.90;;;;;;4993734;28;20084;-49
2021/11/27 04:25:33;;;;;;;25.08;17.20;;;4.90;99.90;;;;;;4993605;28;20084;-52
2021/11/27 04:27:59;;;;;;;23.67;16.67;;;4.90;99.90;;;;;;4993762;28;20081;-52
2021/11/27 04:30:29;;;;;;;31.20;17.33;;;4.90;99.90;;;;;;4993375;28;20050;-50
2021/11/27 04:32:56;;;;;;;25.73;16.77;;;4.90;99.90;;;;;;4993740;28;20073;-48
2021/11/27 04:35:24;;;;;;;28.20;18.55;;;4.90;99.90;;;;;;4993542;28;20038;-51
2021/11/27 04:37:50;;;;;;;23.35;18.00;;;4.90;99.90;;;;;;4993083;28;20125;-51
2021/11/27 04:40:16;;;;;;;26.58;17.27;;;4.90;99.90;;;;;;4992922;28;20073;-48
2021/11/27 04:42:43;;;;;;;24.98;17.77;;;4.90;99.90;;;;;;4993220;28;20102;-52
2021/11/27 04:45:10;;;;;;;31.70;18.30;;;4.90;99.90;;;;;;4993501;28;20046;-51
2021/11/27 04:47:37;;;;;;;28.35;16.90;;;4.90;99.90;;;;;;4993459;28;20042;-51
2021/11/27 04:50:05;;;;;;;25.52;17.58;;;4.90;99.90;;;;;;4993571;28;20080;-50
2021/11/27 04:52:30;;;;;;;27.20;16.55;;;4.90;99.90;;;;;;4993264;28;20049;-51
2021/11/27 04:54:56;;;;;;;28.77;17.42;;;5.00;99.90;;;;;;4993442;28;20038;-51
2021/11/27 04:57:22;;;;;;;25.20;17.15;;;4.90;99.90;;;;;;4993095;28;20089;-49
2021/11/27 04:59:47;;;;;;;24.08;16.50;;;4.90;99.90;;;;;;4993433;28;20038;-50
2021/11/27 05:02:13;;;;;;;25.85;17.05;;;5.00;99.90;;;;;;4993170;28;20042;-50
2021/11/27 05:04:39;;;;;;;26.27;17.35;;;5.00;99.90;;;;;;4993118;28;20038;-49
2021/11/27 05:07:06;;;;;;;29.05;18.90;;;5.00;99.90;;;;;;4992989;28;20465;-49
2021/11/27 05:09:32;;;;;;;25.52;16.75;;;4.90;99.90;;;;;;4992671;28;20473;-48
2021/11/27 05:11:58;;;;;;;25.25;16.17;;;5.00;99.90;;;;;;4992991;28;20066;-52
2021/11/27 05:14:24;;;;;;;22.95;16.60;;;4.90;99.90;;;;;;4993196;28;20050;-52
2021/11/27 05:16:49;;;;;;;22.00;15.98;;;5.00;99.90;;;;;;4993183;28;20042;-48
2021/11/27 05:19:15;;;;;;;25.70;15.55;;;5.00;99.90;;;;;;4993013;28;20469;-50
2021/11/27 05:21:41;;;;;;;24.52;16.27;;;5.00;99.90;;;;;;4992946;28;20468;-51
2021/11/27 05:24:06;;;;;;;24.83;15.90;;;5.00;99.90;;;;;;4992825;28;20031;-48
2021/11/27 05:26:32;;;;;;;24.08;16.45;;;4.90;99.90;;;;;;4992928;28;20046;-51
2021/11/27 05:28:58;;;;;;;23.77;16.63;;;4.90;99.90;;;;;;4992952;28;20054;-52
2021/11/27 05:31:24;;;;;;;25.40;16.80;;;5.00;99.90;;;;;;4993083;28;20050;-48
2021/11/27 05:34:21;;;;;;;20.58;14.85;;;5.00;99.90;;;;;;4993178;28;20366;-52
2021/11/27 05:36:45;;;;;;;25.95;15.68;;;5.00;99.90;;;;;;4992548;28;20053;-52
2021/11/27 05:39:11;;;;;;;21.63;14.75;;;4.90;99.90;;;;;;4993055;28;20046;-49
2021/11/27 05:41:39;;;;;;;21.80;15.88;;;4.90;99.90;;;;;;4992870;28;20042;-48
2021/11/27 05:44:04;;;;;;;24.15;15.40;;;4.90;99.90;;;;;;4992458;28;20489;-52
2021/11/27 05:46:30;;;;;;;22.25;14.50;;;4.90;99.90;;;;;;4992501;28;20038;-50
2021/11/27 05:48:56;;;;;;;23.58;15.43;;;4.90;99.90;;;;;;4992524;28;20045;-53
2021/11/27 05:51:22;;;;;;;22.38;14.70;;;4.90;99.90;;;;;;4996822;28;20049;-52
2021/11/27 05:53:48;;;;;;;24.63;15.15;;;4.90;99.90;;;;;;4997008;28;20039;-51
2021/11/27 05:56:13;;;;;;;32.25;15.73;;;4.80;99.90;;;;;;4996713;28;20050;-51
2021/11/27 05:58:39;;;;;;;22.17;15.50;;;4.80;99.90;;;;;;4996215;28;20046;-50
2021/11/27 06:01:09;;;;;;;23.45;14.80;;;4.80;99.90;;;;;;4996493;28;20050;-51
2021/11/27 06:03:36;;;;;;;27.27;17.77;;;4.80;99.90;;;;;;4996505;28;20052;-50
2021/11/27 06:06:02;;;;;;;33.53;18.02;;;4.80;99.90;;;;;;4996531;28;20086;-47
2021/11/27 06:08:27;;;;;;;26.10;16.77;;;4.80;99.90;;;;;;4996598;28;20062;-50
2021/11/27 06:10:53;;;;;;;27.63;16.38;;;4.80;99.90;;;;;;4996461;28;20038;-52
2021/11/27 06:13:19;;;;;;;26.30;17.27;;;4.80;99.90;;;;;;4996493;28;20077;-51
2021/11/27 06:15:44;;;;;;;22.92;16.48;;;4.80;99.90;;;;;;4996218;28;20396;-51
2021/11/27 06:18:10;;;;;;;28.83;17.20;;;4.80;99.90;;;;;;4996233;28;20072;-51
2021/11/27 06:20:36;;;;;;;25.35;16.90;;;4.80;99.90;;;;;;4996338;28;20093;-48
2021/11/27 06:23:02;;;;;;;27.75;17.35;;;4.80;99.90;;;;;;4996122;28;20121;-49
2021/11/27 06:25:27;;;;;;;30.60;18.25;;;4.80;99.90;;;;;;4996122;28;20042;-48
2021/11/27 06:27:54;;;;;;;24.60;16.52;;;4.80;99.90;;;;;;4995775;28;20480;-51
2021/11/27 06:30:20;;;;;;;26.35;17.52;;;4.80;99.90;;;;;;4995905;28;20050;-49
2021/11/27 06:32:46;;;;;;;25.98;17.42;;;4.80;99.90;;;;;;4995776;28;20034;-49
2021/11/27 06:35:13;;;;;;;33.15;18.98;;;4.80;99.90;;;;;;4994420;28;20484;-50
2021/11/27 06:37:39;;;;;;;26.83;18.75;;;4.80;99.90;;;;;;4995756;28;20089;-51
2021/11/27 06:40:05;;;;;;;28.42;19.17;;;4.80;99.90;;;;;;4995925;28;20042;-50
2021/11/27 06:42:31;;;;;;;29.23;18.52;;;4.90;99.90;;;;;;5011150;28;20108;-51
2021/11/27 06:44:56;;;;;;;34.05;19.25;;;4.80;99.90;;;;;;4995406;28;20046;-52
2021/11/27 06:47:24;;;;;;;33.35;20.33;;;4.90;99.90;;;;;;4995722;28;20038;-50
2021/11/27 06:49:51;;;;;;;32.47;19.33;;;4.90;99.90;;;;;;4995832;28;20077;-51
2021/11/27 06:52:17;;;;;;;32.58;20.02;;;4.90;99.90;;;;;;4995688;28;20084;-53
2021/11/27 06:54:43;;;;;;;30.48;19.52;;;4.90;99.90;;;;;;4995626;28;20535;-51
2021/11/27 06:57:09;;;;;;;30.45;19.50;;;4.90;99.90;;;;;;4995839;28;20034;-51
2021/11/27 06:59:37;;;;;;;31.63;19.77;;;4.90;99.90;;;;;;4995409;28;20101;-50
2021/11/27 07:02:03;;;;;;;30.63;20.05;;;4.90;99.90;;;;;;4994680;28;20045;-50
2021/11/27 07:04:29;;;;;;;31.17;19.17;;;5.00;99.90;;;;;;4995290;28;20036;-51
2021/11/27 07:06:55;;;;;;;29.55;20.35;;;4.90;99.90;;;;;;4995522;28;20043;-48
2021/11/27 07:09:21;;;;;;;31.38;20.15;;;5.00;99.90;;;;;;4995381;28;20432;-49
2021/11/27 07:11:46;;;;;;;29.23;19.55;;;5.00;99.90;;;;;;4995326;28;20113;-51
2021/11/27 07:14:12;;;;;;;33.92;20.88;;;5.00;99.90;;;;;;4995035;28;20074;-49
2021/11/27 07:16:38;;;;;;;33.25;20.80;;;5.00;99.90;;;;;;4994880;28;20031;-52
2021/11/27 07:19:04;;;;;;;34.17;21.67;;;5.00;99.90;;;;;;4995139;28;20053;-50
2021/11/27 07:21:30;;;;;;;32.13;20.38;;;5.00;99.90;;;;;;4995087;28;20114;-50
2021/11/27 07:23:55;;;;;;;34.20;20.50;;;4.90;99.90;;;;;;4994971;28;20034;-51
2021/11/27 07:26:22;;;;;;;35.78;20.65;;;4.90;99.90;;;;;;4994510;28;20393;-50
2021/11/27 07:28:48;;;;;;;29.65;19.92;;;4.90;99.90;;;;;;4994658;28;20551;-51
2021/11/27 07:31:14;;;;;;;33.08;21.50;;;4.90;99.90;;;;;;4994740;28;20049;-48
2021/11/27 07:33:39;;;;;;;33.58;21.02;;;4.90;99.90;;;;;;4994944;28;20039;-52
2021/11/27 07:36:06;;;;;;;39.85;20.90;;;4.90;99.90;;;;;;4994567;28;20404;-49
2021/11/27 07:38:33;;;;;;;35.38;21.20;;;4.90;99.90;;;;;;4994925;28;20042;-50
2021/11/27 07:40:58;;;;;;;34.47;21.52;;;4.90;99.90;;;;;;4994554;28;20092;-50
2021/11/27 07:43:24;;;;;;;38.78;22.13;;;4.90;99.90;;;;;;4994737;28;20042;-52
2021/11/27 07:45:50;;;;;;;31.55;20.88;;;4.90;99.90;;;;;;4994376;28;20085;-48
2021/11/27 07:48:16;;;;;;;31.73;20.88;;;4.90;99.90;;;;;;4994646;28;20038;-48
2021/11/27 07:50:41;;;;;;;41.15;22.92;;;4.90;99.90;;;;;;4994753;28;20034;-51
2021/11/27 07:53:07;;;;;;;40.20;21.58;;;4.90;99.90;;;;;;4994645;28;20088;-50
2021/11/27 07:55:33;;;;;;;34.10;20.52;;;5.00;99.90;;;;;;4994595;28;20096;-51
2021/11/27 07:57:59;;;;;;;37.40;21.40;;;5.00;99.90;;;;;;4994393;28;20046;-52
2021/11/27 08:00:25;;;;;;;32.35;20.65;;;5.00;99.90;;;;;;4994095;28;20049;-48
2021/11/27 08:02:51;;;;;;;34.65;22.60;;;5.00;99.90;;;;;;4994012;28;20496;-52
2021/11/27 08:05:17;;;;;;;39.20;22.60;;;5.00;99.90;;;;;;4994174;28;20086;-51
2021/11/27 08:07:42;;;;;;;32.75;21.98;;;5.00;99.90;;;;;;4994162;28;20042;-46
2021/11/27 08:10:11;;;;;;;32.45;21.88;;;5.00;99.90;;;;;;4994104;28;20034;-48
2021/11/27 08:12:37;;;;;;;34.67;21.07;;;5.10;99.90;;;;;;4993883;28;20046;-49
2021/11/27 08:15:04;;;;;;;33.17;22.27;;;5.00;99.90;;;;;;4993813;28;20038;-50
2021/11/27 08:17:30;;;;;;;30.10;19.60;;;5.10;99.90;;;;;;4994426;28;20404;-48
2021/11/27 08:19:56;;;;;;;34.60;22.38;;;5.00;99.90;;;;;;4994041;28;20113;-51
2021/11/27 08:22:22;;;;;;;30.08;20.83;;;5.00;99.90;;;;;;4993871;28;20112;-50
2021/11/27 08:24:49;;;;;;;28.27;18.42;;;5.00;99.90;;;;;;4993729;28;20042;-48
2021/11/27 08:27:15;;;;;;;31.10;20.08;;;5.00;99.90;;;;;;4993989;28;20069;-52
2021/11/27 08:29:41;;;;;;;27.88;18.63;;;5.00;99.90;;;;;;4993635;28;20050;-47
2021/11/27 08:32:07;;;;;;;30.23;19.55;;;5.00;99.90;;;;;;4993749;28;20050;-50
2021/11/27 08:34:32;;;;;;;35.17;19.83;;;5.00;99.90;;;;;;4993874;28;20066;-47
2021/11/27 08:36:58;;;;;;;29.30;18.13;;;5.00;99.90;;;;;;4993710;28;20480;-52
2021/11/27 08:39:24;;;;;;;27.75;18.17;;;5.00;99.90;;;;;;4993544;28;20100;-49
2021/11/27 08:41:49;;;;;;;27.17;18.38;;;5.00;99.90;;;;;;4993493;28;20038;-50
2021/11/27 08:44:15;;;;;;;26.90;18.15;;;5.00;99.90;;;;;;4993599;28;20045;-49
2021/11/27 08:46:41;;;;;;;25.08;17.17;;;5.00;99.90;;;;;;4993483;28;20491;-51
2021/11/27 08:49:07;;;;;;;27.27;18.02;;;4.90;99.90;;;;;;4993681;28;20072;-52
2021/11/27 08:51:37;;;;;;;25.90;17.35;;;5.00;99.90;;;;;;4993221;28;20268;-51
2021/11/27 08:54:03;;;;;;;24.10;16.90;;;5.00;99.90;;;;;;4993540;28;20718;-51
2021/11/27 08:56:29;;;;;;;26.15;17.42;;;5.00;99.90;;;;;;4993557;28;20042;-51
2021/11/27 08:58:54;;;;;;;31.00;17.90;;;5.00;99.90;;;;;;4993208;28;20038;-51
2021/11/27 09:01:20;;;;;;;26.95;16.92;;;5.00;99.90;;;;;;4993309;28;20049;-51
2021/11/27 09:03:46;;;;;;;23.20;16.00;;;4.90;99.90;;;;;;4993420;28;20038;-52
2021/11/27 09:06:12;;;;;;;24.80;17.15;;;4.90;99.90;;;;;;4993351;28;20388;-51
2021/11/27 09:08:40;;;;;;;25.23;16.83;;;4.90;99.90;;;;;;4993216;28;20117;-52
2021/11/27 09:11:08;;;;;;;24.15;16.10;;;5.00;99.90;;;;;;4992989;28;20043;-48
2021/11/27 09:13:34;;;;;;;28.63;16.90;;;5.00;99.90;;;;;;4993069;28;20042;-51
2021/11/27 09:16:00;;;;;;;28.10;16.60;;;4.90;99.90;;;;;;4991665;28;20041;-52
2021/11/27 09:18:29;;;;;;;30.10;16.70;;;4.90;99.90;;;;;;4993068;28;20088;-52
2021/11/27 09:20:54;;;;;;;22.30;15.47;;;4.90;99.90;;;;;;4991828;28;20046;-52
2021/11/27 09:23:20;;;;;;;25.42;16.50;;;4.90;99.90;;;;;;4993063;28;20045;-52
2021/11/27 09:25:45;;;;;;;25.20;15.60;;;4.90;99.90;;;;;;4992324;28;20046;-52
2021/11/27 09:28:11;;;;;;;22.50;15.32;;;5.00;99.90;;;;;;4993006;28;20053;-51
2021/11/27 09:30:37;;;;;;;24.88;15.48;;;5.00;99.90;;;;;;4991524;28;20085;-52
2021/11/27 09:33:03;;;;;;;23.45;15.75;;;5.00;99.90;;;;;;4992762;28;20445;-52
2021/11/27 09:35:28;;;;;;;24.70;15.07;;;5.00;99.90;;;;;;4992942;28;20046;-51
2021/11/27 09:37:54;;;;;;;26.27;16.70;;;5.00;99.90;;;;;;4992886;28;20439;-52
2021/11/27 09:40:21;;;;;;;21.30;14.55;;;5.00;99.90;;;;;;4992653;28;20049;-52
2021/11/27 09:42:51;;;;;;;23.98;15.85;;;5.00;99.90;;;;;;4992735;28;20433;-52
2021/11/27 09:45:21;;;;;;;25.88;15.07;;;5.00;99.90;;;;;;4992971;28;20050;-52
2021/11/27 09:47:48;;;;;;;23.08;14.88;;;5.00;99.90;;;;;;4992962;28;20074;-53
2021/11/27 09:50:13;;;;;;;22.27;14.10;;;5.00;99.90;;;;;;4992514;28;20046;-48
2021/11/27 09:52:39;;;;;;;21.30;14.57;;;5.00;99.90;;;;;;4991611;28;20038;-50
2021/11/27 09:55:05;;;;;;;26.00;14.55;;;5.10;99.90;;;;;;4992514;28;20531;-51
2021/11/27 09:57:31;;;;;;;25.92;14.55;;;5.10;99.90;;;;;;4992721;28;20049;-50
2021/11/27 09:59:57;;;;;;;26.05;14.30;;;5.10;99.90;;;;;;4992685;28;20046;-48
2021/11/27 10:02:23;;;;;;;24.13;14.10;;;5.10;99.90;;;;;;4992535;28;20045;-48
2021/11/27 10:04:54;;;;;;;23.50;13.68;;;5.10;99.90;;;;;;4992418;28;20038;-50
2021/11/27 10:07:21;;;;;;;23.90;14.25;;;5.20;99.90;;;;;;4992511;28;20046;-50
2021/11/27 10:09:50;;;;;;;22.05;13.48;;;5.20;99.90;;;;;;4992801;28;20397;-50
2021/11/27 10:12:15;;;;;;;25.08;13.73;;;5.20;99.90;;;;;;4992425;28;20073;-51
2021/11/27 10:14:42;;;;;;;17.30;12.65;;;5.20;99.90;;;;;;4992541;28;20086;-46
2021/11/27 10:17:16;;;;;;;26.17;14.38;;;5.30;99.90;;;;;;4992386;28;20042;-49
2021/11/27 10:19:41;;;;;;;19.83;12.77;;;5.30;99.90;;;;;;4992589;28;20117;-47
2021/11/27 10:22:09;;;;;;;23.15;14.20;;;5.30;99.90;;;;;;4992234;28;20142;-48
2021/11/27 10:24:35;;;;;;;23.83;14.57;;;5.30;99.90;;;;;;4991236;28;20112;-49
2021/11/27 10:27:03;;;;;;;21.63;13.35;;;5.30;99.90;;;;;;4992220;28;20481;-48
2021/11/27 10:29:35;;;;;;;22.25;14.07;;;5.30;99.90;;;;;;4992126;28;20101;-49
2021/11/27 10:32:12;;;;;;;23.27;13.27;;;5.40;99.90;;;;;;4992372;28;20050;-49
2021/11/27 10:34:44;;;;;;;20.38;13.13;;;5.40;99.90;;;;;;4992483;28;20046;-51
2021/11/27 10:37:45;;;;;;;26.65;13.85;;;5.40;99.90;;;;;;4994039;28;20042;-48
2021/11/27 10:40:24;;;;;;;26.40;12.40;;;5.40;99.90;;;;;;4974309;28;20556;-48
2021/11/27 10:42:52;;;;;;;20.50;13.02;;;5.40;99.90;;;;;;4974237;28;20082;-51
2021/11/27 10:45:22;;;;;;;25.60;13.40;;;5.40;99.90;;;;;;4974030;28;20043;-51
2021/11/27 10:47:49;;;;;;;19.75;12.60;;;5.40;99.90;;;;;;4974347;28;20043;-52
2021/11/27 10:50:19;;;;;;;16.92;10.63;;;5.50;99.90;;;;;;4974041;28;20098;-50
2021/11/27 10:52:50;;;;;;;20.33;11.32;;;5.50;99.90;;;;;;4974018;28;20169;-51
2021/11/27 10:55:21;;;;;;;20.67;10.63;;;5.50;99.90;;;;;;4973619;28;20595;-51
2021/11/27 10:57:47;;;;;;;18.27;10.27;;;5.50;99.90;;;;;;4973756;28;20108;-50
2021/11/27 11:00:33;;;;;;;15.85;10.30;;;5.50;99.90;;;;;;4973927;28;20520;-49
2021/11/27 11:02:59;;;;;;;17.40;9.10;;;5.50;99.90;;;;;;4957551;28;20493;-51
2021/11/27 11:05:38;;;;;;;17.70;8.27;;;5.50;99.90;;;;;;4973664;28;20429;-49
2021/11/27 11:08:06;;;;;;;15.13;7.50;;;5.60;99.90;;;;;;4973574;28;20043;-50
2021/11/27 11:10:35;;;;;;;10.18;5.28;;;5.50;99.90;;;;;;4973745;28;20069;-48
2021/11/27 11:13:06;;;;;;;10.48;5.30;;;5.50;99.90;;;;;;4957676;28;20041;-49
2021/11/27 11:15:32;;;;;;;9.32;4.88;;;5.50;99.90;;;;;;4982602;28;20100;-50
2021/11/27 11:18:21;;;;;;;8.15;4.95;;;5.50;99.90;;;;;;4995155;28;20129;-51
2021/11/27 11:20:58;;;;;;;8.80;4.18;;;5.50;99.90;;;;;;4995157;28;20125;-47
2021/11/27 11:23:26;;;;;;;7.93;4.38;;;5.50;99.90;;;;;;4995039;28;20068;-51
2021/11/27 11:25:52;;;;;;;7.45;4.63;;;5.50;99.90;;;;;;4994967;28;20046;-51
2021/11/27 11:28:19;;;;;;;7.38;4.55;;;5.50;99.90;;;;;;4995053;28;20440;-51
2021/11/27 11:30:47;;;;;;;10.98;4.40;;;5.50;99.90;;;;;;4994674;28;20105;-51
2021/11/27 11:33:15;;;;;;;6.55;4.40;;;5.60;99.90;;;;;;4994921;28;20046;-48
2021/11/27 11:35:41;;;;;;;5.93;4.45;;;5.60;99.90;;;;;;4994973;28;20129;-52
2021/11/27 11:38:10;;;;;;;6.72;4.15;;;5.60;99.90;;;;;;4994766;28;20046;-49
2021/11/27 11:40:37;;;;;;;6.68;4.38;;;5.60;99.90;;;;;;4994661;28;20070;-47
2021/11/27 11:43:03;;;;;;;10.55;4.78;;;5.60;99.90;;;;;;4994738;28;20042;-49
2021/11/27 11:45:29;;;;;;;6.00;4.28;;;5.60;99.90;;;;;;4994592;28;20440;-51
2021/11/27 11:47:55;;;;;;;6.95;4.55;;;5.70;99.90;;;;;;4994033;28;20038;-50
2021/11/27 11:50:23;;;;;;;10.45;3.72;;;5.70;99.90;;;;;;4994272;28;20089;-48
2021/11/27 11:53:09;;;;;;;4.50;3.95;;;5.70;99.90;;;;;;4994464;28;20043;-48
2021/11/27 11:55:37;;;;;;;6.75;4.28;;;5.60;99.90;;;;;;4994414;28;20396;-52
2021/11/27 11:58:03;;;;;;;5.57;4.07;;;5.70;99.90;;;;;;4994123;28;20046;-48
2021/11/27 12:00:38;;;;;;;5.72;3.88;;;5.70;99.90;;;;;;4994487;28;20114;-49
2021/11/27 12:03:11;;;;;;;10.25;5.50;;;5.70;99.90;;;;;;4994450;28;20054;-52
2021/11/27 12:05:55;;;;;;;10.27;5.65;;;5.70;99.90;;;;;;4993073;28;20046;-48
2021/11/27 12:08:49;;;;;;;8.73;4.72;;;5.70;99.90;;;;;;4994157;28;20571;-51
2021/11/27 12:11:43;;;;;;;8.27;4.97;;;5.70;99.90;;;;;;4994009;28;20057;-51
2021/11/27 12:14:27;;;;;;;5.82;4.75;;;5.70;99.90;;;;;;4993992;28;20034;-50
2021/11/27 12:17:13;;;;;;;11.20;4.53;;;5.70;99.90;;;;;;4994217;28;20065;-48
2021/11/27 12:19:44;;;;;;;8.93;5.70;;;5.70;99.90;;;;;;4993889;28;20049;-50
2021/11/27 12:22:31;;;;;;;7.00;5.63;;;5.50;99.90;;;;;;4993719;28;20045;-50
2021/11/27 12:25:07;;;;;;;5.97;5.00;;;5.70;99.90;;;;;;4993625;28;20392;-48
2021/11/27 12:27:34;;;;;;;8.02;5.03;;;5.70;99.90;;;;;;4994048;28;20042;-47
2021/11/27 12:30:06;;;;;;;8.45;5.60;;;5.70;99.90;;;;;;4993779;28;20054;-51
2021/11/27 12:32:37;;;;;;;7.68;5.90;;;5.70;99.90;;;;;;4993633;28;20065;-49
2021/11/27 12:35:23;;;;;;;10.18;5.60;;;5.70;99.90;;;;;;4993469;28;20459;-47
2021/11/27 12:37:49;;;;;;;7.80;5.72;;;5.70;99.90;;;;;;4993383;28;20066;-47
2021/11/27 12:40:34;;;;;;;12.25;6.05;;;5.70;99.90;;;;;;4993570;28;20038;-51